Time;durP1;ratioP1;P1;durP2;ratioP2;P2;SDS_P1;SDS_P2;PMS_P1;PMS_P2;Temp;Humidity;BMP_temperature;BMP_pressure;BME280_temperature;BME280_humidity;BME280_pressure;Samples;Min_cycle;Max_cycle;Signal;HPM_P1;HPM_P2
2023/12/04 00:00:26;;;;;;;24.60;15.23;;;-4.70;99.90;;;;;;6194921;23;20285;-66
2023/12/04 00:02:52;;;;;;;25.33;14.05;;;-4.60;99.90;;;;;;6194894;23;20302;-66
2023/12/04 00:05:18;;;;;;;22.73;12.77;;;-4.40;99.90;;;;;;6195884;23;20011;-66
2023/12/04 00:07:43;;;;;;;17.83;11.48;;;-4.40;99.90;;;;;;6171171;23;20040;-66
2023/12/04 01:48:16;;;;;;;4.60;3.30;;;-4.90;99.90;;;;;;6253894;22;20720;-64
2023/12/04 01:50:41;;;;;;;6.68;4.40;;;-5.00;99.90;;;;;;6262423;22;20024;-63
2023/12/04 01:53:07;;;;;;;4.63;3.55;;;-4.90;99.90;;;;;;6263957;22;20027;-64
2023/12/04 01:55:33;;;;;;;5.13;3.60;;;-5.00;99.90;;;;;;6261945;22;20011;-65
2023/12/04 01:58:02;;;;;;;5.65;3.53;;;-5.00;99.90;;;;;;6260875;22;20016;-64
2023/12/04 02:00:30;;;;;;;7.28;4.55;;;-5.00;99.90;;;;;;6259445;22;20019;-64
2023/12/04 02:02:55;;;;;;;8.45;5.32;;;-5.40;99.90;;;;;;6259449;22;20065;-64
2023/12/04 02:05:22;;;;;;;9.23;5.18;;;-5.60;99.90;;;;;;6259081;22;20027;-64
2023/12/04 02:07:48;;;;;;;13.20;6.63;;;-5.50;99.90;;;;;;6260653;22;20065;-64
2023/12/04 02:10:14;;;;;;;8.55;5.47;;;-5.50;99.90;;;;;;6259690;22;20413;-64
2023/12/04 02:12:39;;;;;;;9.80;6.28;;;-5.40;99.90;;;;;;6258108;22;20382;-64
2023/12/04 02:15:06;;;;;;;8.23;5.45;;;-5.40;99.90;;;;;;6259749;22;20008;-65
2023/12/04 02:17:33;;;;;;;10.63;5.55;;;-5.30;99.90;;;;;;6259275;22;20090;-63
2023/12/04 02:19:59;;;;;;;8.90;5.32;;;-5.40;99.90;;;;;;6259378;22;20058;-64
2023/12/04 02:22:24;;;;;;;8.57;5.90;;;-5.40;99.90;;;;;;6256304;22;20011;-64
2023/12/04 02:24:50;;;;;;;8.68;5.97;;;-5.40;99.90;;;;;;6260016;22;20613;-64
2023/12/04 02:27:22;;;;;;;11.65;6.68;;;-5.30;99.90;;;;;;6230944;22;20021;-64
2023/12/04 02:29:52;;;;;;;;;;;-5.30;99.90;;;;;;6256212;22;20004;-64
2023/12/04 02:32:20;;;;;;;12.90;7.53;;;-5.30;99.90;;;;;;6258720;22;20275;-65
2023/12/04 02:34:48;;;;;;;18.08;10.02;;;-5.30;99.90;;;;;;6259077;22;20010;-64
2023/12/04 02:37:15;;;;;;;11.88;6.60;;;-5.10;99.90;;;;;;6258112;22;20011;-64
2023/12/04 02:39:42;;;;;;;9.18;5.32;;;-5.10;99.90;;;;;;6232606;22;20023;-64
2023/12/04 02:42:08;;;;;;;9.73;6.75;;;-5.20;99.90;;;;;;6259292;22;20000;-65
2023/12/04 02:44:33;;;;;;;10.18;6.10;;;-5.20;99.90;;;;;;6258144;22;20370;-65
2023/12/04 02:46:59;;;;;;;7.55;4.43;;;-5.20;99.90;;;;;;6258557;22;20057;-65
2023/12/04 02:49:24;;;;;;;7.57;4.80;;;-5.30;99.90;;;;;;6257435;22;20030;-67
2023/12/04 02:51:50;;;;;;;10.15;5.53;;;-5.60;99.90;;;;;;6232058;22;20008;-66
2023/12/04 02:54:16;;;;;;;13.07;7.15;;;-5.90;99.90;;;;;;6258106;22;20003;-66
2023/12/04 02:56:41;;;;;;;10.30;6.65;;;-6.10;99.90;;;;;;6258919;22;20534;-67
2023/12/04 02:59:07;;;;;;;12.18;6.80;;;-5.90;99.90;;;;;;6260239;22;20020;-65
2023/12/04 03:01:32;;;;;;;12.68;7.65;;;-6.00;99.90;;;;;;6258599;22;20011;-66
2023/12/04 03:03:58;;;;;;;21.98;11.48;;;-6.10;99.90;;;;;;6259295;22;20004;-66
2023/12/04 03:06:23;;;;;;;27.67;12.80;;;-5.90;99.90;;;;;;6258516;22;20108;-63
2023/12/04 03:08:49;;;;;;;21.52;12.82;;;-5.70;99.90;;;;;;6260956;22;20063;-63
2023/12/04 03:11:14;;;;;;;12.95;8.82;;;-5.40;99.90;;;;;;6259260;22;20835;-63
2023/12/04 03:13:40;;;;;;;12.73;8.18;;;-5.40;99.90;;;;;;6258245;22;20012;-63
2023/12/04 03:16:06;;;;;;;12.73;7.72;;;-5.50;99.90;;;;;;6262024;22;19999;-63
2023/12/04 03:18:32;;;;;;;12.45;7.63;;;-5.30;99.90;;;;;;6258252;22;20015;-63
2023/12/04 03:20:57;;;;;;;6.75;4.80;;;-5.20;99.90;;;;;;6255285;22;20007;-63
2023/12/04 03:23:23;;;;;;;9.85;6.15;;;-5.40;99.90;;;;;;6258805;22;20077;-63
2023/12/04 03:25:48;;;;;;;9.90;5.32;;;-5.60;99.90;;;;;;6258608;22;20381;-63
2023/12/04 03:28:15;;;;;;;10.48;6.28;;;-5.60;99.90;;;;;;6257356;22;20008;-64
2023/12/04 03:30:43;;;;;;;22.38;12.02;;;-5.60;99.90;;;;;;6260262;22;20106;-63
2023/12/04 03:33:09;;;;;;;49.80;22.27;;;-5.70;99.90;;;;;;6260928;22;20004;-64
2023/12/04 03:35:35;;;;;;;48.63;21.73;;;-5.70;99.90;;;;;;6257852;22;20507;-63
2023/12/04 03:38:00;;;;;;;40.72;19.90;;;-5.70;99.90;;;;;;6259722;22;20058;-63
2023/12/04 03:40:26;;;;;;;52.10;25.08;;;-5.60;99.90;;;;;;6259493;22;20033;-63
2023/12/04 03:42:52;;;;;;;73.90;31.00;;;-5.30;99.90;;;;;;6256408;22;20004;-63
2023/12/04 03:45:17;;;;;;;52.67;23.75;;;-5.10;99.90;;;;;;6259539;22;20031;-63
2023/12/04 03:47:43;;;;;;;51.08;22.50;;;-4.80;99.90;;;;;;6259910;22;20039;-63
2023/12/04 03:50:09;;;;;;;44.30;20.88;;;-4.60;99.90;;;;;;6256284;22;20024;-63
2023/12/04 03:52:34;;;;;;;75.65;33.85;;;-4.50;99.90;;;;;;6259062;22;20027;-63
2023/12/04 03:55:00;;;;;;;89.78;41.55;;;-4.80;99.90;;;;;;6259511;22;20015;-63
2023/12/04 03:57:25;;;;;;;67.85;31.33;;;-5.10;99.90;;;;;;6257848;22;20003;-63
2023/12/04 03:59:51;;;;;;;32.72;18.42;;;-5.20;99.90;;;;;;6256782;22;20381;-63
2023/12/04 04:02:16;;;;;;;36.10;22.23;;;-5.30;99.90;;;;;;6259288;22;20000;-63
2023/12/04 04:04:42;;;;;;;35.83;20.05;;;-5.20;99.90;;;;;;6259275;22;20038;-63
2023/12/04 04:07:09;;;;;;;32.92;15.93;;;-5.10;99.90;;;;;;6260010;22;20023;-64
2023/12/04 04:09:34;;;;;;;25.67;14.70;;;-5.10;99.90;;;;;;6260668;22;20008;-63
2023/12/04 04:12:00;;;;;;;16.63;9.38;;;-5.30;99.90;;;;;;6259798;22;20310;-63
2023/12/04 04:14:25;;;;;;;15.68;9.52;;;-5.40;99.90;;;;;;6261266;22;20113;-63
2023/12/04 04:16:51;;;;;;;18.95;11.07;;;-5.60;99.90;;;;;;6255749;22;20425;-63
2023/12/04 04:19:17;;;;;;;25.38;13.45;;;-5.50;99.90;;;;;;6258570;22;20532;-63
2023/12/04 04:21:42;;;;;;;17.45;10.32;;;-5.40;99.90;;;;;;6260523;22;20011;-65
2023/12/04 04:24:08;;;;;;;13.85;7.90;;;-5.40;99.90;;;;;;6260077;22;20039;-65
2023/12/04 04:26:33;;;;;;;15.45;8.02;;;-5.50;99.90;;;;;;6259761;22;20216;-65
2023/12/04 04:28:59;;;;;;;18.75;11.10;;;-5.80;99.90;;;;;;6261599;22;20008;-65
2023/12/04 04:31:25;;;;;;;18.13;10.50;;;-5.80;99.90;;;;;;6260653;22;20006;-65
2023/12/04 04:33:50;;;;;;;17.95;10.88;;;-5.70;99.90;;;;;;6258929;22;20043;-66
2023/12/04 04:36:16;;;;;;;23.60;13.50;;;-5.60;99.90;;;;;;6261697;22;20226;-66
2023/12/04 04:38:41;;;;;;;19.48;10.10;;;-5.50;99.90;;;;;;6261067;22;20201;-66
2023/12/04 04:41:12;;;;;;;12.68;7.47;;;-5.50;99.90;;;;;;6263240;22;20066;-65
2023/12/04 04:43:38;;;;;;;13.60;8.75;;;-5.40;99.90;;;;;;6262411;22;20621;-65
2023/12/04 04:46:04;;;;;;;18.13;9.50;;;-5.50;99.90;;;;;;6264504;22;20316;-65
2023/12/04 04:48:29;;;;;;;26.05;15.20;;;-5.40;99.90;;;;;;6265919;22;20006;-65
2023/12/04 04:50:55;;;;;;;19.20;11.00;;;-5.20;99.90;;;;;;6262556;22;20012;-65
2023/12/04 04:53:20;;;;;;;12.13;7.20;;;-5.20;99.90;;;;;;6264362;22;20432;-66
2023/12/04 04:55:46;;;;;;;9.15;5.85;;;-5.40;99.90;;;;;;6262988;22;20317;-63
2023/12/04 04:58:12;;;;;;;12.45;7.15;;;-5.80;99.90;;;;;;6263477;22;20034;-63
2023/12/04 05:00:37;;;;;;;10.55;6.70;;;-5.90;99.90;;;;;;6262967;22;20697;-63
2023/12/04 05:03:03;;;;;;;12.77;6.60;;;-5.80;99.90;;;;;;6261478;22;20011;-63
2023/12/04 05:05:28;;;;;;;11.32;6.85;;;-5.80;99.90;;;;;;6259195;22;20249;-63
2023/12/04 05:07:54;;;;;;;13.57;7.57;;;-5.60;99.90;;;;;;6261976;22;20008;-63
2023/12/04 05:10:19;;;;;;;31.05;16.52;;;-5.50;99.90;;;;;;6260927;22;20065;-63
2023/12/04 05:12:45;;;;;;;24.75;15.07;;;-5.40;99.90;;;;;;6261386;22;20432;-63
2023/12/04 05:15:10;;;;;;;24.85;14.43;;;-5.40;99.90;;;;;;6262952;22;20027;-63
2023/12/04 05:17:36;;;;;;;44.42;21.05;;;-5.40;99.90;;;;;;6264109;22;20012;-64
2023/12/04 05:20:02;;;;;;;30.02;16.30;;;-5.30;99.90;;;;;;6257673;22;20007;-64
2023/12/04 05:22:27;;;;;;;19.73;10.00;;;-5.40;99.90;;;;;;6261920;22;20339;-64
2023/12/04 05:24:53;;;;;;;27.33;13.65;;;-5.70;99.90;;;;;;6261720;22;20427;-65
2023/12/04 05:27:19;;;;;;;22.15;12.38;;;-5.70;99.90;;;;;;6260471;22;20000;-64
2023/12/04 05:29:44;;;;;;;21.63;11.77;;;-5.60;99.90;;;;;;6263183;22;20036;-64
2023/12/04 05:32:10;;;;;;;21.02;11.07;;;-5.50;99.90;;;;;;6259857;22;20030;-64
2023/12/04 05:34:36;;;;;;;21.40;11.45;;;-5.50;99.90;;;;;;6263846;22;20018;-67
2023/12/04 05:37:01;;;;;;;30.88;16.27;;;-5.30;99.90;;;;;;6259236;22;20010;-67
2023/12/04 05:39:27;;;;;;;18.15;10.45;;;-5.20;99.90;;;;;;6262211;22;20007;-67
2023/12/04 05:41:53;;;;;;;17.92;8.95;;;-5.30;99.90;;;;;;6264125;22;20004;-71
2023/12/04 05:44:18;;;;;;;13.43;7.25;;;-5.50;99.90;;;;;;6259005;22;20007;-67
2023/12/04 05:46:44;;;;;;;21.95;11.38;;;-5.60;99.90;;;;;;6262670;22;20008;-67
2023/12/04 05:49:10;;;;;;;25.20;11.80;;;-5.50;99.90;;;;;;6258278;22;20192;-67
2023/12/04 05:51:35;;;;;;;19.63;11.02;;;-5.50;99.90;;;;;;6231804;22;20106;-67
2023/12/04 05:54:01;;;;;;;15.23;8.55;;;-5.50;99.90;;;;;;6258943;22;20003;-67
2023/12/04 05:56:26;;;;;;;19.58;10.13;;;-5.60;99.90;;;;;;6262133;22;20103;-67
2023/12/04 05:58:52;;;;;;;14.50;8.50;;;-5.70;99.90;;;;;;6256881;22;20016;-67
2023/12/04 06:01:18;;;;;;;14.43;8.50;;;-5.80;99.90;;;;;;6260791;22;19999;-68
2023/12/04 06:03:44;;;;;;;23.45;12.30;;;-5.90;99.90;;;;;;6232694;22;20014;-67
2023/12/04 06:06:10;;;;;;;21.25;11.55;;;-6.00;99.90;;;;;;6260428;22;20004;-67
2023/12/04 06:08:35;;;;;;;25.67;14.05;;;-6.20;99.90;;;;;;6261816;22;20030;-68
2023/12/04 06:11:01;;;;;;;18.30;10.93;;;-6.10;99.90;;;;;;6262661;22;20031;-64
2023/12/04 06:13:26;;;;;;;22.38;10.07;;;-6.20;99.90;;;;;;6260247;22;20057;-64
2023/12/04 06:15:52;;;;;;;18.00;10.27;;;-6.30;99.90;;;;;;6260594;22;20059;-65
2023/12/04 06:18:18;;;;;;;27.20;12.98;;;-6.40;99.90;;;;;;6258618;22;20023;-65
2023/12/04 06:20:43;;;;;;;122.82;53.42;;;-6.60;99.90;;;;;;6231688;22;20030;-65
2023/12/04 06:23:09;;;;;;;122.30;60.20;;;-6.80;99.90;;;;;;6257646;22;20085;-65
2023/12/04 06:25:35;;;;;;;39.63;24.58;;;-6.90;99.90;;;;;;6254211;22;20232;-64
2023/12/04 06:28:01;;;;;;;44.92;24.52;;;-6.70;99.90;;;;;;6256738;22;20004;-68
2023/12/04 06:30:27;;;;;;;40.63;23.30;;;-6.50;99.90;;;;;;6258173;22;20054;-68
2023/12/04 06:32:52;;;;;;;45.75;23.33;;;-6.20;99.90;;;;;;6257418;22;20393;-67
2023/12/04 06:35:18;;;;;;;32.85;18.45;;;-6.00;99.90;;;;;;6252409;22;20007;-67
2023/12/04 06:37:45;;;;;;;33.35;20.50;;;-5.70;99.90;;;;;;6257763;22;20004;-67
2023/12/04 06:40:12;;;;;;;31.15;17.00;;;-5.50;99.90;;;;;;6255849;22;20007;-68
2023/12/04 06:42:38;;;;;;;23.60;14.50;;;-5.30;99.90;;;;;;6250626;22;20416;-66
2023/12/04 06:45:04;;;;;;;26.60;15.88;;;-5.10;99.90;;;;;;6252868;22;20003;-66
2023/12/04 06:47:33;;;;;;;51.67;27.40;;;-4.90;99.90;;;;;;6259960;22;20008;-66
2023/12/04 06:49:59;;;;;;;45.80;25.80;;;-5.10;99.90;;;;;;6261009;22;20077;-66
2023/12/04 06:52:25;;;;;;;56.35;28.98;;;-5.60;99.90;;;;;;6260937;22;20011;-66
2023/12/04 06:54:50;;;;;;;53.67;27.67;;;-5.90;99.90;;;;;;6260547;22;20008;-66
2023/12/04 06:57:16;;;;;;;57.38;30.08;;;-6.10;99.90;;;;;;6262867;22;20004;-66
2023/12/04 06:59:42;;;;;;;61.22;31.48;;;-6.00;99.90;;;;;;6262322;22;20251;-66
2023/12/04 07:02:08;;;;;;;89.47;42.10;;;-5.80;99.90;;;;;;6232904;22;20007;-66
2023/12/04 07:04:34;;;;;;;52.08;26.83;;;-5.60;99.90;;;;;;6259044;22;20436;-66
2023/12/04 07:07:04;;;;;;;56.88;27.20;;;-5.40;99.90;;;;;;6260199;22;20000;-66
2023/12/04 07:09:31;;;;;;;46.00;24.58;;;-5.10;99.90;;;;;;6263029;22;20008;-66
2023/12/04 07:11:57;;;;;;;29.75;17.60;;;-5.20;99.90;;;;;;6262029;22;20456;-66
2023/12/04 07:14:22;;;;;;;21.73;13.52;;;-5.30;99.90;;;;;;6262156;22;20008;-66
2023/12/04 07:16:49;;;;;;;21.60;13.15;;;-5.40;99.90;;;;;;6262568;22;20063;-66
2023/12/04 07:19:16;;;;;;;24.08;13.48;;;-5.30;99.90;;;;;;6262007;22;20419;-67
2023/12/04 07:21:41;;;;;;;18.65;11.68;;;-5.10;99.90;;;;;;6262688;22;20008;-67
2023/12/04 07:24:07;;;;;;;24.33;14.00;;;-4.90;99.90;;;;;;6260116;22;20000;-66
2023/12/04 07:26:34;;;;;;;18.38;11.02;;;-4.90;99.90;;;;;;6262176;22;20361;-66
2023/12/04 07:29:00;;;;;;;16.25;10.05;;;-4.60;99.90;;;;;;6261327;22;20004;-67
2023/12/04 07:31:26;;;;;;;14.00;9.60;;;-4.40;99.90;;;;;;6262195;22;20292;-67
2023/12/04 07:33:53;;;;;;;12.43;7.95;;;-4.20;99.90;;;;;;6262589;22;20054;-67
2023/12/04 07:36:19;;;;;;;14.05;8.40;;;-4.00;99.90;;;;;;6262965;22;20032;-67
2023/12/04 07:38:45;;;;;;;13.20;9.25;;;-3.90;99.90;;;;;;6261555;22;20022;-66
2023/12/04 07:41:10;;;;;;;15.38;9.98;;;-3.80;99.90;;;;;;6259600;22;20381;-66
2023/12/04 07:43:36;;;;;;;13.85;9.73;;;-3.50;99.90;;;;;;6259615;22;20007;-67
2023/12/04 07:46:03;;;;;;;13.20;8.95;;;-3.30;99.90;;;;;;6255492;22;20000;-67
2023/12/04 07:48:30;;;;;;;12.85;8.40;;;-3.10;99.90;;;;;;6257462;22;20004;-67
2023/12/04 07:50:55;;;;;;;11.43;8.45;;;-2.90;99.90;;;;;;6256975;22;20011;-67
2023/12/04 07:53:22;;;;;;;13.60;8.35;;;-2.70;99.90;;;;;;6261268;22;20509;-67
2023/12/04 07:55:49;;;;;;;11.75;8.68;;;-2.60;99.90;;;;;;6261864;22;20444;-66
2023/12/04 07:58:15;;;;;;;12.30;8.25;;;-2.50;99.90;;;;;;6260498;22;20007;-67
2023/12/04 08:00:41;;;;;;;11.60;8.05;;;-2.30;99.90;;;;;;6259263;22;20481;-67
2023/12/04 08:03:07;;;;;;;12.05;8.02;;;-2.20;99.90;;;;;;6262233;22;20003;-66
2023/12/04 08:05:32;;;;;;;13.13;8.38;;;-2.20;99.90;;;;;;6258473;22;20007;-67
2023/12/04 08:07:58;;;;;;;13.05;8.90;;;-2.10;99.90;;;;;;6262726;22;20000;-67
2023/12/04 08:10:23;;;;;;;13.30;8.85;;;-1.90;99.90;;;;;;6260959;22;20031;-68
2023/12/04 08:12:49;;;;;;;14.32;8.93;;;-1.80;99.90;;;;;;6258851;22;20329;-67
2023/12/04 08:15:15;;;;;;;12.93;9.20;;;-1.70;99.90;;;;;;6254944;22;20015;-66
2023/12/04 08:17:41;;;;;;;13.70;9.32;;;-1.60;99.90;;;;;;6258041;22;20034;-66
2023/12/04 08:20:07;;;;;;;16.58;10.00;;;-1.50;99.90;;;;;;6261324;22;20018;-66
2023/12/04 08:22:33;;;;;;;14.85;10.00;;;-1.30;99.90;;;;;;6256951;22;20437;-66
2023/12/04 08:24:59;;;;;;;13.25;9.25;;;-1.30;99.90;;;;;;6262758;22;20300;-66
2023/12/04 08:27:24;;;;;;;14.77;10.43;;;-1.30;99.90;;;;;;6260461;22;20045;-65
2023/12/04 08:29:50;;;;;;;15.98;11.13;;;-1.30;99.90;;;;;;6261272;22;20094;-66
2023/12/04 08:32:16;;;;;;;15.15;10.95;;;-1.20;99.90;;;;;;6259467;22;20008;-66
2023/12/04 08:34:41;;;;;;;16.25;10.88;;;-1.30;99.90;;;;;;6262192;22;20220;-66
2023/12/04 08:37:07;;;;;;;13.40;9.52;;;-1.20;99.90;;;;;;6257380;22;20053;-66
2023/12/04 08:39:32;;;;;;;14.55;10.05;;;-1.20;99.90;;;;;;6261253;22;20469;-66
2023/12/04 08:41:58;;;;;;;17.02;11.65;;;-1.20;99.90;;;;;;6260250;22;20012;-66
2023/12/04 08:44:24;;;;;;;17.15;11.05;;;-1.20;99.90;;;;;;6253925;22;20012;-66
2023/12/04 08:46:50;;;;;;;14.88;10.93;;;-1.20;99.90;;;;;;6260119;22;20215;-65
2023/12/04 08:49:16;;;;;;;18.80;11.25;;;-1.00;99.90;;;;;;6253650;22;20015;-66
2023/12/04 08:51:41;;;;;;;15.45;10.68;;;-1.00;99.90;;;;;;6257153;22;20058;-66
2023/12/04 08:54:07;;;;;;;14.25;10.48;;;-1.00;99.90;;;;;;6259578;22;20424;-66
2023/12/04 08:56:33;;;;;;;13.10;9.50;;;-1.00;99.90;;;;;;6261173;22;20012;-66
2023/12/04 08:58:58;;;;;;;15.38;10.35;;;-1.00;99.90;;;;;;6261308;22;20082;-65
2023/12/04 09:01:24;;;;;;;17.20;11.18;;;-0.90;99.90;;;;;;6224448;22;20008;-65
2023/12/04 09:03:52;;;;;;;20.65;14.02;;;-0.80;99.90;;;;;;6257842;22;20687;-66
2023/12/04 09:06:18;;;;;;;33.08;19.08;;;-0.70;99.90;;;;;;6259607;22;20087;-66
2023/12/04 09:08:43;;;;;;;27.45;15.00;;;-0.50;99.90;;;;;;6255470;22;20099;-66
2023/12/04 09:11:09;;;;;;;37.33;18.77;;;-0.20;99.90;;;;;;6261342;22;20004;-65
2023/12/04 09:13:34;;;;;;;21.40;14.57;;;-0.10;99.90;;;;;;6257887;22;20672;-66
2023/12/04 09:16:00;;;;;;;16.63;11.90;;;0.10;99.90;;;;;;6261270;22;20106;-63
2023/12/04 09:18:26;;;;;;;17.30;9.98;;;0.30;99.90;;;;;;6258284;22;20011;-63
2023/12/04 09:20:51;;;;;;;16.52;10.80;;;0.40;99.90;;;;;;6258808;22;19999;-63
2023/12/04 09:23:17;;;;;;;16.20;11.45;;;0.50;99.90;;;;;;6260261;22;20010;-63
2023/12/04 09:25:42;;;;;;;11.75;9.02;;;0.50;99.90;;;;;;6260670;22;20007;-63
2023/12/04 09:28:08;;;;;;;11.63;8.73;;;0.30;99.90;;;;;;6259401;22;20038;-63
2023/12/04 09:30:35;;;;;;;13.45;9.63;;;0.10;99.90;;;;;;6262690;22;20333;-63
2023/12/04 09:33:01;;;;;;;17.48;9.95;;;-0.10;99.90;;;;;;6263177;22;20007;-66
2023/12/04 09:35:27;;;;;;;21.73;12.43;;;0.00;99.90;;;;;;6260507;22;20027;-66
2023/12/04 09:37:52;;;;;;;14.05;9.85;;;0.20;99.90;;;;;;6262157;22;20030;-66
2023/12/04 09:40:18;;;;;;;19.50;10.15;;;0.50;99.90;;;;;;6262052;22;20032;-66
2023/12/04 09:42:44;;;;;;;20.90;10.85;;;0.70;99.90;;;;;;6260450;22;20349;-66
2023/12/04 09:45:10;;;;;;;27.05;11.88;;;0.80;99.90;;;;;;6263725;22;20004;-66
2023/12/04 09:47:36;;;;;;;21.98;12.27;;;0.90;99.90;;;;;;6259377;22;20527;-66
2023/12/04 09:50:02;;;;;;;14.65;8.65;;;0.90;99.90;;;;;;6263975;22;20188;-66
2023/12/04 09:52:28;;;;;;;18.05;7.97;;;1.00;99.90;;;;;;6258522;22;20062;-66
2023/12/04 09:54:54;;;;;;;11.73;8.25;;;1.10;99.90;;;;;;6262346;22;20009;-66
2023/12/04 09:57:21;;;;;;;11.90;7.43;;;1.20;99.90;;;;;;6261503;22;20026;-66
2023/12/04 09:59:48;;;;;;;13.07;8.27;;;1.10;99.90;;;;;;6260689;22;20004;-66
2023/12/04 10:02:13;;;;;;;17.90;11.32;;;1.10;99.90;;;;;;6260879;22;20022;-66
2023/12/04 10:04:41;;;;;;;10.65;7.75;;;1.10;99.90;;;;;;6261349;22;20082;-66
2023/12/04 10:07:07;;;;;;;20.70;8.15;;;1.20;99.90;;;;;;6260141;22;20087;-65
2023/12/04 10:09:32;;;;;;;9.95;6.97;;;1.20;99.90;;;;;;6261288;22;20039;-66
2023/12/04 10:11:58;;;;;;;11.13;6.90;;;1.20;99.90;;;;;;6261470;22;20010;-66
2023/12/04 10:14:25;;;;;;;10.68;6.85;;;1.30;99.90;;;;;;6261555;22;20453;-65
2023/12/04 10:16:52;;;;;;;8.63;6.32;;;1.20;99.90;;;;;;6259876;22;20086;-66
2023/12/04 10:19:27;;;;;;;20.98;7.25;;;1.10;99.90;;;;;;6260238;22;20312;-66
2023/12/04 10:21:54;;;;;;;18.45;11.27;;;1.00;99.90;;;;;;6257997;22;20015;-66
2023/12/04 10:24:35;;;;;;;47.55;15.13;;;1.10;99.90;;;;;;6262343;22;20367;-65
2023/12/04 10:27:07;;;;;;;13.68;9.75;;;1.20;99.90;;;;;;6261486;22;20400;-65
2023/12/04 10:29:47;;;;;;;14.27;9.90;;;1.30;99.90;;;;;;6234089;22;20099;-65
2023/12/04 10:32:12;;;;;;;13.65;8.35;;;1.30;99.90;;;;;;6258776;22;20123;-66
2023/12/04 10:34:42;;;;;;;18.05;10.25;;;1.30;99.90;;;;;;6232844;22;20098;-66
2023/12/04 10:37:09;;;;;;;18.92;11.82;;;1.20;99.90;;;;;;6262206;22;20014;-65
2023/12/04 10:39:51;;;;;;;16.52;10.45;;;1.10;99.90;;;;;;6261542;22;20390;-66
2023/12/04 10:42:27;;;;;;;22.83;12.23;;;1.20;99.90;;;;;;6261777;22;20571;-66
2023/12/04 10:44:55;;;;;;;13.20;8.32;;;1.20;99.90;;;;;;6258929;22;20014;-67
2023/12/04 10:47:21;;;;;;;34.33;22.98;;;1.20;99.90;;;;;;6259938;22;20007;-66
2023/12/04 10:49:50;;;;;;;13.13;10.48;;;1.20;99.90;;;;;;6260662;22;20118;-66
2023/12/04 10:52:16;;;;;;;15.52;10.02;;;1.20;99.90;;;;;;6261239;22;20324;-66
2023/12/04 10:54:41;;;;;;;31.08;19.85;;;1.30;99.90;;;;;;6262190;22;20325;-66
2023/12/04 10:57:09;;;;;;;42.50;26.35;;;1.40;99.90;;;;;;6259842;22;20408;-65
2023/12/04 10:59:38;;;;;;;22.95;17.08;;;1.50;99.90;;;;;;6260127;22;20475;-67
2023/12/04 11:02:08;;;;;;;17.55;11.73;;;1.60;99.90;;;;;;6260763;22;20082;-66
2023/12/04 11:04:36;;;;;;;28.02;14.05;;;1.70;99.90;;;;;;6261363;22;20480;-63
2023/12/04 11:07:06;;;;;;;16.77;11.57;;;1.70;99.90;;;;;;6261114;22;20027;-63
2023/12/04 11:09:34;;;;;;;16.85;11.07;;;1.60;99.90;;;;;;6258989;22;20003;-63
2023/12/04 11:12:05;;;;;;;45.15;27.02;;;1.60;99.90;;;;;;6259603;22;20382;-63
2023/12/04 11:14:44;;;;;;;13.68;9.60;;;1.60;99.90;;;;;;6258758;22;20024;-64
2023/12/04 11:17:13;;;;;;;16.15;11.80;;;1.60;99.90;;;;;;6261860;22;20000;-64
2023/12/04 11:20:01;;;;;;;11.40;7.93;;;1.60;99.90;;;;;;6259390;22;20008;-64
2023/12/04 11:22:27;;;;;;;14.85;9.32;;;1.60;99.90;;;;;;6259878;22;20015;-63
2023/12/04 11:24:52;;;;;;;16.25;9.70;;;1.60;99.90;;;;;;6262732;22;20555;-63
2023/12/04 11:27:19;;;;;;;17.35;9.07;;;1.50;99.90;;;;;;6227779;22;20333;-63
2023/12/04 11:29:46;;;;;;;9.82;7.22;;;1.40;99.90;;;;;;6261619;22;20524;-64
2023/12/04 11:32:18;;;;;;;9.82;6.68;;;1.40;99.90;;;;;;6231717;22;20012;-64
2023/12/04 11:34:52;;;;;;;14.77;8.38;;;1.40;99.90;;;;;;6257835;22;20012;-64
2023/12/04 11:37:19;;;;;;;19.75;11.13;;;1.40;99.90;;;;;;6260104;22;20011;-66
2023/12/04 11:39:49;;;;;;;30.63;17.45;;;1.40;99.90;;;;;;6261916;22;20012;-66
2023/12/04 11:42:25;;;;;;;13.70;9.82;;;1.50;99.90;;;;;;6259648;22;20035;-64
2023/12/04 11:44:57;;;;;;;10.25;7.72;;;1.60;99.90;;;;;;6261299;22;20091;-64
2023/12/04 11:47:23;;;;;;;10.07;6.75;;;1.50;99.90;;;;;;6259201;22;20004;-66
2023/12/04 11:49:49;;;;;;;49.55;26.60;;;1.60;99.90;;;;;;6258607;22;20046;-64
2023/12/04 11:52:15;;;;;;;27.42;19.10;;;1.60;99.90;;;;;;6259893;22;20231;-64
2023/12/04 11:54:57;;;;;;;25.48;18.42;;;1.70;99.90;;;;;;6261296;22;20008;-64
2023/12/04 11:57:24;;;;;;;;;;;1.70;99.90;;;;;;6260218;22;20016;-64
2023/12/04 11:59:50;;;;;;;13.25;11.02;;;1.80;99.90;;;;;;6258053;22;19933;-66
2023/12/04 12:02:16;;;;;;;15.55;9.40;;;1.90;99.90;;;;;;6261048;22;20012;-66
2023/12/04 12:04:42;;;;;;;11.07;8.07;;;1.90;99.90;;;;;;6231725;22;20012;-66
2023/12/04 12:07:07;;;;;;;11.70;8.60;;;1.90;99.90;;;;;;6260993;22;20709;-66
2023/12/04 12:09:33;;;;;;;13.02;9.25;;;1.90;99.90;;;;;;6260401;22;20410;-66
2023/12/04 12:12:01;;;;;;;12.63;8.70;;;1.80;99.90;;;;;;6256859;22;20061;-66
2023/12/04 12:14:27;;;;;;;11.38;7.50;;;1.80;99.90;;;;;;6257346;22;20004;-68
2023/12/04 12:16:55;;;;;;;15.27;9.63;;;1.80;99.90;;;;;;6258218;22;20014;-65
2023/12/04 12:19:21;;;;;;;13.63;9.68;;;1.90;99.90;;;;;;6260457;22;20290;-66
2023/12/04 12:21:49;;;;;;;14.00;9.00;;;1.90;99.90;;;;;;6261708;22;20344;-63
2023/12/04 12:24:15;;;;;;;13.75;9.20;;;1.90;99.90;;;;;;6261297;22;20008;-66
2023/12/04 12:26:41;;;;;;;17.02;10.27;;;1.90;99.90;;;;;;6260079;22;20047;-65
2023/12/04 12:29:09;;;;;;;11.68;8.10;;;2.00;99.90;;;;;;6230072;22;20508;-63
2023/12/04 12:31:34;;;;;;;13.13;9.55;;;2.00;99.90;;;;;;6260831;22;20027;-63
2023/12/04 12:34:00;;;;;;;14.60;10.95;;;2.00;99.90;;;;;;6260122;22;20031;-63
2023/12/04 12:36:26;;;;;;;13.38;9.77;;;1.90;99.90;;;;;;6259753;22;20061;-66
2023/12/04 12:38:51;;;;;;;16.15;11.18;;;1.90;99.90;;;;;;6262685;22;20422;-68
2023/12/04 12:41:17;;;;;;;27.60;14.82;;;2.00;99.90;;;;;;6259780;22;20003;-68
2023/12/04 12:43:43;;;;;;;18.55;11.32;;;2.10;99.90;;;;;;6258804;22;20083;-68
2023/12/04 12:46:11;;;;;;;25.92;17.98;;;2.10;99.90;;;;;;6259032;22;20028;-68
2023/12/04 12:48:36;;;;;;;22.92;14.00;;;2.00;99.90;;;;;;6259992;22;20083;-69
2023/12/04 12:51:03;;;;;;;15.90;11.10;;;2.10;99.90;;;;;;6259077;22;20115;-68
2023/12/04 12:53:31;;;;;;;18.00;11.07;;;2.00;99.90;;;;;;6260727;22;20073;-69
2023/12/04 12:55:58;;;;;;;14.85;10.70;;;1.90;99.90;;;;;;6260196;22;20011;-69
2023/12/04 12:58:25;;;;;;;29.20;20.77;;;2.00;99.90;;;;;;6259940;22;20043;-66
2023/12/04 13:00:50;;;;;;;17.92;11.00;;;2.00;99.90;;;;;;6260167;22;20007;-65
2023/12/04 13:03:17;;;;;;;25.10;12.68;;;2.10;99.90;;;;;;6259337;22;20011;-66
2023/12/04 13:05:42;;;;;;;33.33;17.40;;;2.00;99.90;;;;;;6260081;22;20003;-66
2023/12/04 13:08:08;;;;;;;28.65;16.15;;;2.10;99.90;;;;;;6258386;22;20348;-66
2023/12/04 13:10:33;;;;;;;15.23;9.10;;;2.20;99.90;;;;;;6258760;22;20011;-65
2023/12/04 13:12:59;;;;;;;14.23;9.88;;;2.10;99.90;;;;;;6257295;22;20006;-63
2023/12/04 13:15:26;;;;;;;15.38;10.32;;;2.10;99.90;;;;;;6257613;22;20321;-63
2023/12/04 13:17:51;;;;;;;16.67;10.70;;;2.20;99.90;;;;;;6261939;22;20113;-63
2023/12/04 13:20:17;;;;;;;18.00;10.93;;;2.20;99.90;;;;;;6259193;22;20817;-64
2023/12/04 13:22:43;;;;;;;30.70;17.05;;;2.20;99.90;;;;;;6263650;22;20008;-64
2023/12/04 13:25:10;;;;;;;15.63;10.32;;;2.20;99.90;;;;;;6260713;22;20008;-64
2023/12/04 13:27:39;;;;;;;19.40;12.85;;;2.10;99.90;;;;;;6260947;22;20011;-63
2023/12/04 13:30:08;;;;;;;22.13;13.05;;;2.00;99.90;;;;;;6257730;22;20073;-63
2023/12/04 13:32:38;;;;;;;22.60;15.00;;;2.10;99.90;;;;;;6261385;22;20007;-64
2023/12/04 13:35:04;;;;;;;30.83;17.52;;;2.10;99.90;;;;;;6260386;22;20021;-63
2023/12/04 13:37:31;;;;;;;27.33;16.85;;;2.10;99.90;;;;;;6258273;22;20015;-63
2023/12/04 13:40:06;;;;;;;26.63;17.10;;;2.10;99.90;;;;;;6261844;22;20081;-63
2023/12/04 13:45:21;;;;;;;15.73;11.77;;;2.20;99.90;;;;;;6261135;22;20014;-63
2023/12/04 13:47:47;;;;;;;20.60;12.73;;;2.00;99.90;;;;;;6232007;22;20101;-63
2023/12/04 13:50:13;;;;;;;15.98;11.10;;;2.00;99.90;;;;;;6258211;22;20468;-66
2023/12/04 13:52:39;;;;;;;16.63;11.48;;;2.00;99.90;;;;;;6262778;22;20031;-66
2023/12/04 13:55:14;;;;;;;18.60;13.02;;;2.00;99.90;;;;;;6229264;22;20003;-66
2023/12/04 14:00:41;;;;;;;19.75;12.20;;;2.10;99.90;;;;;;6190852;22;20010;-66
2023/12/04 14:03:07;;;;;;;14.95;11.02;;;2.10;99.90;;;;;;6232197;22;20016;-67
2023/12/04 14:05:34;;;;;;;46.00;27.42;;;2.10;99.90;;;;;;6259768;22;20030;-66
2023/12/04 14:08:00;;;;;;;20.77;12.80;;;2.10;99.90;;;;;;6258020;22;20019;-66
2023/12/04 14:10:27;;;;;;;20.73;13.77;;;2.10;99.90;;;;;;6261738;22;20041;-66
2023/12/04 14:12:53;;;;;;;19.42;13.27;;;2.10;99.90;;;;;;6254650;22;20023;-66
2023/12/04 14:15:19;;;;;;;35.30;21.85;;;2.10;99.90;;;;;;6255159;22;20401;-66